sensor_id;sensor_type;location;lat;lon;timestamp;temperature;humidity
43607;DHT22;29197;44.788;10.366;2023-03-01T00:01:36;8.80;99.90
43607;DHT22;29197;44.788;10.366;2023-03-01T00:04:25;8.80;99.90
43607;DHT22;29197;44.788;10.366;2023-03-01T00:07:14;8.80;99.90
43607;DHT22;29197;44.788;10.366;2023-03-01T00:10:03;8.80;99.90
43607;DHT22;29197;44.788;10.366;2023-03-01T00:12:52;8.80;99.90
43607;DHT22;29197;44.788;10.366;2023-03-01T00:15:41;8.80;99.90
43607;DHT22;29197;44.788;10.366;2023-03-01T00:18:30;8.80;99.90
43607;DHT22;29197;44.788;10.366;2023-03-01T00:21:20;8.70;99.90
43607;DHT22;29197;44.788;10.366;2023-03-01T00:24:09;8.70;99.90
43607;DHT22;29197;44.788;10.366;2023-03-01T00:26:58;8.70;99.90
43607;DHT22;29197;44.788;10.366;2023-03-01T00:32:37;8.50;99.90
43607;DHT22;29197;44.788;10.366;2023-03-01T00:35:25;8.40;99.90
43607;DHT22;29197;44.788;10.366;2023-03-01T00:38:14;8.50;99.90
43607;DHT22;29197;44.788;10.366;2023-03-01T00:41:06;8.40;99.90
43607;DHT22;29197;44.788;10.366;2023-03-01T00:43:54;8.40;99.90
43607;DHT22;29197;44.788;10.366;2023-03-01T00:46:43;8.40;99.90
43607;DHT22;29197;44.788;10.366;2023-03-01T00:49:33;8.30;99.90
43607;DHT22;29197;44.788;10.366;2023-03-01T00:52:21;8.30;99.90
43607;DHT22;29197;44.788;10.366;2023-03-01T00:55:10;8.30;99.90
43607;DHT22;29197;44.788;10.366;2023-03-01T00:57:59;9.60;99.90
43607;DHT22;29197;44.788;10.366;2023-03-01T01:00:48;8.30;99.90
43607;DHT22;29197;44.788;10.366;2023-03-01T01:03:36;8.40;99.90
43607;DHT22;29197;44.788;10.366;2023-03-01T01:06:28;8.50;99.90
43607;DHT22;29197;44.788;10.366;2023-03-01T01:09:18;8.40;99.90
43607;DHT22;29197;44.788;10.366;2023-03-01T01:12:06;8.40;99.90
43607;DHT22;29197;44.788;10.366;2023-03-01T01:14:55;8.50;99.90
43607;DHT22;29197;44.788;10.366;2023-03-01T01:17:43;8.50;99.90
43607;DHT22;29197;44.788;10.366;2023-03-01T01:20:32;8.40;99.90
43607;DHT22;29197;44.788;10.366;2023-03-01T01:23:22;8.40;99.90
43607;DHT22;29197;44.788;10.366;2023-03-01T01:26:13;8.40;99.90
43607;DHT22;29197;44.788;10.366;2023-03-01T01:29:03;8.40;99.90
43607;DHT22;29197;44.788;10.366;2023-03-01T01:31:52;8.30;99.90
43607;DHT22;29197;44.788;10.366;2023-03-01T01:34:40;8.30;99.90
43607;DHT22;29197;44.788;10.366;2023-03-01T01:37:29;8.40;99.90
43607;DHT22;29197;44.788;10.366;2023-03-01T01:40:20;8.40;99.90
43607;DHT22;29197;44.788;10.366;2023-03-01T01:43:15;8.40;99.90
43607;DHT22;29197;44.788;10.366;2023-03-01T01:46:14;8.40;99.90
43607;DHT22;29197;44.788;10.366;2023-03-01T01:49:06;8.40;99.90
43607;DHT22;29197;44.788;10.366;2023-03-01T01:52:00;8.50;99.90
43607;DHT22;29197;44.788;10.366;2023-03-01T01:54:53;8.50;99.90
43607;DHT22;29197;44.788;10.366;2023-03-01T01:57:47;8.40;99.90
43607;DHT22;29197;44.788;10.366;2023-03-01T02:00:37;8.40;99.90
43607;DHT22;29197;44.788;10.366;2023-03-01T02:03:29;8.40;99.90
43607;DHT22;29197;44.788;10.366;2023-03-01T02:06:25;8.40;99.90
43607;DHT22;29197;44.788;10.366;2023-03-01T02:09:18;8.40;99.90
43607;DHT22;29197;44.788;10.366;2023-03-01T02:12:08;8.30;99.90
43607;DHT22;29197;44.788;10.366;2023-03-01T02:14:58;8.20;99.90
43607;DHT22;29197;44.788;10.366;2023-03-01T02:17:47;8.20;99.90
43607;DHT22;29197;44.788;10.366;2023-03-01T02:20:44;8.20;99.90
43607;DHT22;29197;44.788;10.366;2023-03-01T02:23:36;7.90;99.90
43607;DHT22;29197;44.788;10.366;2023-03-01T02:26:30;7.60;99.90
43607;DHT22;29197;44.788;10.366;2023-03-01T02:29:22;7.60;99.90
43607;DHT22;29197;44.788;10.366;2023-03-01T02:32:12;7.60;99.90
43607;DHT22;29197;44.788;10.366;2023-03-01T02:35:01;7.50;99.90
43607;DHT22;29197;44.788;10.366;2023-03-01T02:37:53;7.30;99.90
43607;DHT22;29197;44.788;10.366;2023-03-01T02:40:44;7.30;99.90
43607;DHT22;29197;44.788;10.366;2023-03-01T02:43:33;7.40;99.90
43607;DHT22;29197;44.788;10.366;2023-03-01T02:46:25;7.40;99.90
43607;DHT22;29197;44.788;10.366;2023-03-01T02:49:20;7.40;99.90
43607;DHT22;29197;44.788;10.366;2023-03-01T02:52:30;7.60;99.90
43607;DHT22;29197;44.788;10.366;2023-03-01T02:55:22;7.80;99.90
43607;DHT22;29197;44.788;10.366;2023-03-01T02:58:11;7.90;99.90
43607;DHT22;29197;44.788;10.366;2023-03-01T03:01:00;8.00;99.90
43607;DHT22;29197;44.788;10.366;2023-03-01T03:03:50;8.10;99.90
43607;DHT22;29197;44.788;10.366;2023-03-01T03:06:38;8.10;99.90
43607;DHT22;29197;44.788;10.366;2023-03-01T03:09:27;8.20;99.90
43607;DHT22;29197;44.788;10.366;2023-03-01T03:12:15;8.30;99.90
43607;DHT22;29197;44.788;10.366;2023-03-01T03:15:05;8.30;99.90
43607;DHT22;29197;44.788;10.366;2023-03-01T03:17:57;8.30;99.90
43607;DHT22;29197;44.788;10.366;2023-03-01T03:20:48;8.20;99.90
43607;DHT22;29197;44.788;10.366;2023-03-01T03:23:39;8.20;99.90
43607;DHT22;29197;44.788;10.366;2023-03-01T03:26:30;8.20;99.90
43607;DHT22;29197;44.788;10.366;2023-03-01T03:29:19;8.30;99.90
43607;DHT22;29197;44.788;10.366;2023-03-01T03:32:07;8.20;99.90
43607;DHT22;29197;44.788;10.366;2023-03-01T03:34:56;8.20;99.90
43607;DHT22;29197;44.788;10.366;2023-03-01T03:37:46;8.20;99.90
43607;DHT22;29197;44.788;10.366;2023-03-01T03:41:01;7.50;99.90
43607;DHT22;29197;44.788;10.366;2023-03-01T03:43:50;7.00;99.90
43607;DHT22;29197;44.788;10.366;2023-03-01T03:46:39;7.30;99.90
43607;DHT22;29197;44.788;10.366;2023-03-01T03:49:27;7.60;99.90
43607;DHT22;29197;44.788;10.366;2023-03-01T03:52:16;7.80;99.90
43607;DHT22;29197;44.788;10.366;2023-03-01T03:55:07;7.90;99.90
43607;DHT22;29197;44.788;10.366;2023-03-01T03:57:58;8.10;99.90
43607;DHT22;29197;44.788;10.366;2023-03-01T04:00:51;8.10;99.90
43607;DHT22;29197;44.788;10.366;2023-03-01T04:03:39;8.10;99.90
43607;DHT22;29197;44.788;10.366;2023-03-01T04:06:28;8.20;99.90
43607;DHT22;29197;44.788;10.366;2023-03-01T04:09:17;8.20;99.90
43607;DHT22;29197;44.788;10.366;2023-03-01T04:12:07;8.30;99.90
43607;DHT22;29197;44.788;10.366;2023-03-01T04:14:56;8.30;99.90
43607;DHT22;29197;44.788;10.366;2023-03-01T04:17:46;8.30;99.90
43607;DHT22;29197;44.788;10.366;2023-03-01T04:20:35;8.10;99.90
43607;DHT22;29197;44.788;10.366;2023-03-01T04:23:24;7.40;99.90
43607;DHT22;29197;44.788;10.366;2023-03-01T04:26:12;7.60;99.90
43607;DHT22;29197;44.788;10.366;2023-03-01T04:29:02;7.60;99.90
43607;DHT22;29197;44.788;10.366;2023-03-01T04:31:51;7.70;99.90
43607;DHT22;29197;44.788;10.366;2023-03-01T04:34:40;7.60;99.90
43607;DHT22;29197;44.788;10.366;2023-03-01T04:37:28;7.80;99.90
43607;DHT22;29197;44.788;10.366;2023-03-01T04:40:17;7.90;99.90
43607;DHT22;29197;44.788;10.366;2023-03-01T04:43:05;7.70;99.90
43607;DHT22;29197;44.788;10.366;2023-03-01T04:46:00;7.80;99.90
43607;DHT22;29197;44.788;10.366;2023-03-01T04:48:49;7.60;99.90
43607;DHT22;29197;44.788;10.366;2023-03-01T04:51:38;7.70;99.90
43607;DHT22;29197;44.788;10.366;2023-03-01T04:54:26;7.60;99.90
43607;DHT22;29197;44.788;10.366;2023-03-01T04:57:15;7.80;99.90
43607;DHT22;29197;44.788;10.366;2023-03-01T05:00:04;7.90;99.90
43607;DHT22;29197;44.788;10.366;2023-03-01T05:03:09;8.10;99.90
43607;DHT22;29197;44.788;10.366;2023-03-01T05:05:58;8.20;99.90
43607;DHT22;29197;44.788;10.366;2023-03-01T05:08:47;8.20;99.90
43607;DHT22;29197;44.788;10.366;2023-03-01T05:11:36;8.20;99.90
43607;DHT22;29197;44.788;10.366;2023-03-01T05:14:24;8.30;99.90
43607;DHT22;29197;44.788;10.366;2023-03-01T05:17:13;8.20;99.90
43607;DHT22;29197;44.788;10.366;2023-03-01T05:20:03;8.00;99.90
43607;DHT22;29197;44.788;10.366;2023-03-01T05:22:57;8.00;99.90
43607;DHT22;29197;44.788;10.366;2023-03-01T05:25:46;8.10;99.90
43607;DHT22;29197;44.788;10.366;2023-03-01T05:28:36;8.20;99.90
43607;DHT22;29197;44.788;10.366;2023-03-01T05:31:25;8.30;99.90
43607;DHT22;29197;44.788;10.366;2023-03-01T05:34:13;8.30;99.90
43607;DHT22;29197;44.788;10.366;2023-03-01T05:37:03;8.40;99.90
43607;DHT22;29197;44.788;10.366;2023-03-01T05:39:52;8.20;99.90
43607;DHT22;29197;44.788;10.366;2023-03-01T05:42:41;8.30;99.90
43607;DHT22;29197;44.788;10.366;2023-03-01T05:45:30;8.20;99.90
43607;DHT22;29197;44.788;10.366;2023-03-01T05:48:19;8.20;99.90
43607;DHT22;29197;44.788;10.366;2023-03-01T05:51:07;8.30;99.90
43607;DHT22;29197;44.788;10.366;2023-03-01T05:53:57;8.30;99.90
43607;DHT22;29197;44.788;10.366;2023-03-01T05:56:46;8.30;99.90
43607;DHT22;29197;44.788;10.366;2023-03-01T05:59:35;8.40;99.90
43607;DHT22;29197;44.788;10.366;2023-03-01T06:02:23;8.40;99.90
43607;DHT22;29197;44.788;10.366;2023-03-01T06:05:13;8.50;99.90
43607;DHT22;29197;44.788;10.366;2023-03-01T06:08:02;8.50;99.90
43607;DHT22;29197;44.788;10.366;2023-03-01T06:10:52;8.40;99.90
43607;DHT22;29197;44.788;10.366;2023-03-01T06:13:41;8.40;99.90
43607;DHT22;29197;44.788;10.366;2023-03-01T06:16:29;8.40;99.90
43607;DHT22;29197;44.788;10.366;2023-03-01T06:19:18;8.40;99.90
43607;DHT22;29197;44.788;10.366;2023-03-01T06:22:07;8.30;99.90
43607;DHT22;29197;44.788;10.366;2023-03-01T06:24:55;7.90;99.90
43607;DHT22;29197;44.788;10.366;2023-03-01T06:27:46;8.10;99.90
43607;DHT22;29197;44.788;10.366;2023-03-01T06:30:35;8.10;99.90
43607;DHT22;29197;44.788;10.366;2023-03-01T06:33:24;8.20;99.90
43607;DHT22;29197;44.788;10.366;2023-03-01T06:36:12;8.20;99.90
43607;DHT22;29197;44.788;10.366;2023-03-01T06:39:01;8.20;99.90
43607;DHT22;29197;44.788;10.366;2023-03-01T06:41:49;8.00;99.90
43607;DHT22;29197;44.788;10.366;2023-03-01T06:44:41;8.20;99.90
43607;DHT22;29197;44.788;10.366;2023-03-01T06:47:30;8.10;99.90
43607;DHT22;29197;44.788;10.366;2023-03-01T06:50:20;8.20;99.90
43607;DHT22;29197;44.788;10.366;2023-03-01T06:53:08;7.90;99.90
43607;DHT22;29197;44.788;10.366;2023-03-01T06:55:57;7.40;99.90
43607;DHT22;29197;44.788;10.366;2023-03-01T06:58:47;7.30;99.90
43607;DHT22;29197;44.788;10.366;2023-03-01T07:01:36;7.50;99.90
43607;DHT22;29197;44.788;10.366;2023-03-01T07:04:26;7.10;99.90
43607;DHT22;29197;44.788;10.366;2023-03-01T07:07:15;7.20;99.90
43607;DHT22;29197;44.788;10.366;2023-03-01T07:10:06;7.30;99.90
43607;DHT22;29197;44.788;10.366;2023-03-01T07:12:56;7.70;99.90
43607;DHT22;29197;44.788;10.366;2023-03-01T07:15:44;7.80;99.90
43607;DHT22;29197;44.788;10.366;2023-03-01T07:18:34;8.10;99.90
43607;DHT22;29197;44.788;10.366;2023-03-01T07:21:23;7.80;99.90
43607;DHT22;29197;44.788;10.366;2023-03-01T07:24:11;7.80;99.90
43607;DHT22;29197;44.788;10.366;2023-03-01T07:27:00;7.20;99.90
43607;DHT22;29197;44.788;10.366;2023-03-01T07:29:48;7.10;99.90
43607;DHT22;29197;44.788;10.366;2023-03-01T07:32:37;7.10;99.90
43607;DHT22;29197;44.788;10.366;2023-03-01T07:35:27;6.80;99.90
43607;DHT22;29197;44.788;10.366;2023-03-01T07:38:16;6.60;99.90
43607;DHT22;29197;44.788;10.366;2023-03-01T07:41:04;6.60;99.90
43607;DHT22;29197;44.788;10.366;2023-03-01T07:43:53;6.70;99.90
43607;DHT22;29197;44.788;10.366;2023-03-01T07:46:41;6.80;99.90
43607;DHT22;29197;44.788;10.366;2023-03-01T07:49:30;6.90;99.90
43607;DHT22;29197;44.788;10.366;2023-03-01T07:52:20;6.90;99.90
43607;DHT22;29197;44.788;10.366;2023-03-01T07:55:08;7.00;99.90
43607;DHT22;29197;44.788;10.366;2023-03-01T07:57:57;6.70;99.90
43607;DHT22;29197;44.788;10.366;2023-03-01T08:00:45;6.70;99.90
43607;DHT22;29197;44.788;10.366;2023-03-01T08:03:34;6.50;99.90
43607;DHT22;29197;44.788;10.366;2023-03-01T08:06:23;6.70;99.90
43607;DHT22;29197;44.788;10.366;2023-03-01T08:09:13;6.50;99.90
43607;DHT22;29197;44.788;10.366;2023-03-01T08:14:51;6.00;99.90
43607;DHT22;29197;44.788;10.366;2023-03-01T08:17:40;6.10;99.90
43607;DHT22;29197;44.788;10.366;2023-03-01T08:20:28;6.20;99.90
43607;DHT22;29197;44.788;10.366;2023-03-01T08:23:17;6.20;99.90
43607;DHT22;29197;44.788;10.366;2023-03-01T08:26:09;6.10;99.90
43607;DHT22;29197;44.788;10.366;2023-03-01T08:28:59;6.10;99.90
43607;DHT22;29197;44.788;10.366;2023-03-01T08:31:48;6.00;99.90
43607;DHT22;29197;44.788;10.366;2023-03-01T08:34:37;6.20;99.90
43607;DHT22;29197;44.788;10.366;2023-03-01T08:37:27;5.90;99.90
43607;DHT22;29197;44.788;10.366;2023-03-01T08:40:18;6.10;99.90
43607;DHT22;29197;44.788;10.366;2023-03-01T08:43:08;5.90;99.90
43607;DHT22;29197;44.788;10.366;2023-03-01T08:45:56;5.90;99.90
43607;DHT22;29197;44.788;10.366;2023-03-01T08:48:45;5.90;99.90
43607;DHT22;29197;44.788;10.366;2023-03-01T08:51:33;5.60;99.90
43607;DHT22;29197;44.788;10.366;2023-03-01T08:54:23;5.80;99.90
43607;DHT22;29197;44.788;10.366;2023-03-01T08:57:12;5.90;99.90
43607;DHT22;29197;44.788;10.366;2023-03-01T09:00:02;5.60;99.90
43607;DHT22;29197;44.788;10.366;2023-03-01T09:02:55;5.60;99.90
43607;DHT22;29197;44.788;10.366;2023-03-01T09:05:43;5.80;99.90
43607;DHT22;29197;44.788;10.366;2023-03-01T09:08:34;5.70;99.90
43607;DHT22;29197;44.788;10.366;2023-03-01T09:11:23;6.10;99.90
43607;DHT22;29197;44.788;10.366;2023-03-01T09:14:12;6.30;99.90
43607;DHT22;29197;44.788;10.366;2023-03-01T09:17:02;6.50;99.90
43607;DHT22;29197;44.788;10.366;2023-03-01T09:19:50;6.60;99.90
43607;DHT22;29197;44.788;10.366;2023-03-01T09:22:39;6.40;99.90
43607;DHT22;29197;44.788;10.366;2023-03-01T09:25:27;6.20;99.90
43607;DHT22;29197;44.788;10.366;2023-03-01T09:28:16;6.20;99.90
43607;DHT22;29197;44.788;10.366;2023-03-01T09:31:17;6.60;99.90
43607;DHT22;29197;44.788;10.366;2023-03-01T09:34:08;6.50;99.90
43607;DHT22;29197;44.788;10.366;2023-03-01T09:36:57;6.30;99.90
43607;DHT22;29197;44.788;10.366;2023-03-01T09:39:49;6.20;99.90
43607;DHT22;29197;44.788;10.366;2023-03-01T09:42:46;6.10;99.90
43607;DHT22;29197;44.788;10.366;2023-03-01T09:45:40;6.30;99.90
43607;DHT22;29197;44.788;10.366;2023-03-01T09:48:33;6.30;99.90
43607;DHT22;29197;44.788;10.366;2023-03-01T09:51:29;6.40;99.90
43607;DHT22;29197;44.788;10.366;2023-03-01T09:54:18;6.60;99.90
43607;DHT22;29197;44.788;10.366;2023-03-01T09:57:17;6.70;99.90
43607;DHT22;29197;44.788;10.366;2023-03-01T10:00:22;6.80;99.90
43607;DHT22;29197;44.788;10.366;2023-03-01T10:03:17;6.80;99.90
43607;DHT22;29197;44.788;10.366;2023-03-01T10:06:14;6.60;99.90
43607;DHT22;29197;44.788;10.366;2023-03-01T10:09:21;6.70;99.90
43607;DHT22;29197;44.788;10.366;2023-03-01T10:12:11;6.60;99.90
43607;DHT22;29197;44.788;10.366;2023-03-01T10:15:04;6.60;99.90
43607;DHT22;29197;44.788;10.366;2023-03-01T10:17:57;6.40;99.90
43607;DHT22;29197;44.788;10.366;2023-03-01T10:20:53;6.50;99.90
43607;DHT22;29197;44.788;10.366;2023-03-01T10:23:43;6.60;99.90
43607;DHT22;29197;44.788;10.366;2023-03-01T10:26:41;6.60;99.90
43607;DHT22;29197;44.788;10.366;2023-03-01T10:29:38;6.70;99.90
43607;DHT22;29197;44.788;10.366;2023-03-01T10:32:27;6.50;99.90
43607;DHT22;29197;44.788;10.366;2023-03-01T10:35:18;6.20;99.90
43607;DHT22;29197;44.788;10.366;2023-03-01T10:38:08;6.20;99.90
43607;DHT22;29197;44.788;10.366;2023-03-01T10:40:59;6.40;99.90
43607;DHT22;29197;44.788;10.366;2023-03-01T10:43:51;6.30;99.90
43607;DHT22;29197;44.788;10.366;2023-03-01T10:46:40;6.30;99.90
43607;DHT22;29197;44.788;10.366;2023-03-01T10:49:29;6.60;99.90
43607;DHT22;29197;44.788;10.366;2023-03-01T10:52:19;6.70;99.90
43607;DHT22;29197;44.788;10.366;2023-03-01T10:55:24;6.60;99.90
43607;DHT22;29197;44.788;10.366;2023-03-01T10:58:18;6.80;99.90
43607;DHT22;29197;44.788;10.366;2023-03-01T11:01:26;7.00;99.90
43607;DHT22;29197;44.788;10.366;2023-03-01T11:04:15;7.50;99.90
43607;DHT22;29197;44.788;10.366;2023-03-01T11:07:04;7.50;99.90
43607;DHT22;29197;44.788;10.366;2023-03-01T11:09:52;7.40;99.90
43607;DHT22;29197;44.788;10.366;2023-03-01T11:12:42;7.20;99.90
43607;DHT22;29197;44.788;10.366;2023-03-01T11:15:30;7.10;99.90
43607;DHT22;29197;44.788;10.366;2023-03-01T11:18:22;7.20;99.90
43607;DHT22;29197;44.788;10.366;2023-03-01T11:21:29;7.50;99.90
43607;DHT22;29197;44.788;10.366;2023-03-01T11:24:19;7.10;99.90
43607;DHT22;29197;44.788;10.366;2023-03-01T11:27:18;7.20;99.90
43607;DHT22;29197;44.788;10.366;2023-03-01T11:30:18;7.70;99.90
43607;DHT22;29197;44.788;10.366;2023-03-01T11:33:15;7.30;99.90
43607;DHT22;29197;44.788;10.366;2023-03-01T11:36:12;7.10;99.90
43607;DHT22;29197;44.788;10.366;2023-03-01T11:39:16;7.00;99.90
43607;DHT22;29197;44.788;10.366;2023-03-01T11:42:11;6.70;99.90
43607;DHT22;29197;44.788;10.366;2023-03-01T11:45:09;7.00;99.90
43607;DHT22;29197;44.788;10.366;2023-03-01T11:48:12;7.30;99.90
43607;DHT22;29197;44.788;10.366;2023-03-01T11:51:11;7.50;99.90
43607;DHT22;29197;44.788;10.366;2023-03-01T11:54:19;7.40;99.90
43607;DHT22;29197;44.788;10.366;2023-03-01T11:57:20;7.40;99.90
43607;DHT22;29197;44.788;10.366;2023-03-01T12:00:40;7.10;99.90
43607;DHT22;29197;44.788;10.366;2023-03-01T12:03:46;7.00;99.90
43607;DHT22;29197;44.788;10.366;2023-03-01T12:07:02;6.90;99.90
43607;DHT22;29197;44.788;10.366;2023-03-01T12:10:16;7.00;99.90
43607;DHT22;29197;44.788;10.366;2023-03-01T12:16:40;7.10;99.90
43607;DHT22;29197;44.788;10.366;2023-03-01T12:19:45;7.00;99.90
43607;DHT22;29197;44.788;10.366;2023-03-01T12:22:48;6.90;99.90
43607;DHT22;29197;44.788;10.366;2023-03-01T12:25:46;6.80;99.90
43607;DHT22;29197;44.788;10.366;2023-03-01T12:28:56;6.90;99.90
43607;DHT22;29197;44.788;10.366;2023-03-01T12:32:09;6.70;99.90
43607;DHT22;29197;44.788;10.366;2023-03-01T12:38:32;5.30;99.90
43607;DHT22;29197;44.788;10.366;2023-03-01T12:41:40;6.70;99.90
43607;DHT22;29197;44.788;10.366;2023-03-01T12:44:42;6.90;99.90
43607;DHT22;29197;44.788;10.366;2023-03-01T12:47:54;6.80;99.90
43607;DHT22;29197;44.788;10.366;2023-03-01T12:50:50;7.00;99.90
43607;DHT22;29197;44.788;10.366;2023-03-01T12:53:43;7.20;99.90
43607;DHT22;29197;44.788;10.366;2023-03-01T12:56:36;6.90;99.90
43607;DHT22;29197;44.788;10.366;2023-03-01T12:59:32;6.60;99.90
43607;DHT22;29197;44.788;10.366;2023-03-01T13:02:26;6.60;99.90
43607;DHT22;29197;44.788;10.366;2023-03-01T13:05:24;6.60;99.90
43607;DHT22;29197;44.788;10.366;2023-03-01T13:08:22;6.60;99.90
43607;DHT22;29197;44.788;10.366;2023-03-01T13:11:19;6.50;99.90
43607;DHT22;29197;44.788;10.366;2023-03-01T13:14:45;6.20;99.90
43607;DHT22;29197;44.788;10.366;2023-03-01T13:17:41;6.10;99.90
43607;DHT22;29197;44.788;10.366;2023-03-01T13:20:34;6.10;99.90
43607;DHT22;29197;44.788;10.366;2023-03-01T13:23:28;6.20;99.90
43607;DHT22;29197;44.788;10.366;2023-03-01T13:26:19;6.40;99.90
43607;DHT22;29197;44.788;10.366;2023-03-01T13:29:25;6.60;99.90
43607;DHT22;29197;44.788;10.366;2023-03-01T13:32:22;6.10;99.90
43607;DHT22;29197;44.788;10.366;2023-03-01T13:35:43;5.90;99.90
43607;DHT22;29197;44.788;10.366;2023-03-01T13:38:46;6.10;99.90
43607;DHT22;29197;44.788;10.366;2023-03-01T13:41:54;6.40;99.90
43607;DHT22;29197;44.788;10.366;2023-03-01T13:44:44;6.60;99.90
43607;DHT22;29197;44.788;10.366;2023-03-01T13:47:34;6.80;99.90
43607;DHT22;29197;44.788;10.366;2023-03-01T13:50:25;6.90;99.90
43607;DHT22;29197;44.788;10.366;2023-03-01T13:53:18;6.90;99.90
43607;DHT22;29197;44.788;10.366;2023-03-01T13:56:10;6.60;99.90
43607;DHT22;29197;44.788;10.366;2023-03-01T13:59:03;6.60;99.90
43607;DHT22;29197;44.788;10.366;2023-03-01T14:01:53;6.60;99.90
43607;DHT22;29197;44.788;10.366;2023-03-01T14:04:42;6.60;99.90
43607;DHT22;29197;44.788;10.366;2023-03-01T14:07:31;6.10;99.90
43607;DHT22;29197;44.788;10.366;2023-03-01T14:10:19;6.10;99.90
43607;DHT22;29197;44.788;10.366;2023-03-01T14:13:22;6.10;99.90
43607;DHT22;29197;44.788;10.366;2023-03-01T14:16:27;5.80;99.90
43607;DHT22;29197;44.788;10.366;2023-03-01T14:19:21;6.00;99.90
43607;DHT22;29197;44.788;10.366;2023-03-01T14:22:22;6.10;99.90
43607;DHT22;29197;44.788;10.366;2023-03-01T14:25:20;6.10;99.90
43607;DHT22;29197;44.788;10.366;2023-03-01T14:28:16;6.10;99.90
43607;DHT22;29197;44.788;10.366;2023-03-01T14:31:31;6.10;99.90
43607;DHT22;29197;44.788;10.366;2023-03-01T14:34:33;6.10;99.90
43607;DHT22;29197;44.788;10.366;2023-03-01T14:37:24;6.00;99.90
43607;DHT22;29197;44.788;10.366;2023-03-01T14:40:25;6.30;99.90
43607;DHT22;29197;44.788;10.366;2023-03-01T14:43:22;6.00;99.90
43607;DHT22;29197;44.788;10.366;2023-03-01T14:46:24;5.90;99.90
43607;DHT22;29197;44.788;10.366;2023-03-01T14:49:19;5.90;99.90
43607;DHT22;29197;44.788;10.366;2023-03-01T14:52:20;6.20;99.90
43607;DHT22;29197;44.788;10.366;2023-03-01T14:55:16;6.30;99.90
43607;DHT22;29197;44.788;10.366;2023-03-01T14:58:09;6.60;99.90
43607;DHT22;29197;44.788;10.366;2023-03-01T15:01:02;6.60;99.90
43607;DHT22;29197;44.788;10.366;2023-03-01T15:03:51;6.70;99.90
43607;DHT22;29197;44.788;10.366;2023-03-01T15:06:41;6.40;99.90
43607;DHT22;29197;44.788;10.366;2023-03-01T15:09:32;6.20;99.90
43607;DHT22;29197;44.788;10.366;2023-03-01T15:12:38;6.30;99.90
43607;DHT22;29197;44.788;10.366;2023-03-01T15:15:33;6.80;99.90
43607;DHT22;29197;44.788;10.366;2023-03-01T15:18:26;6.40;99.90
43607;DHT22;29197;44.788;10.366;2023-03-01T15:21:21;6.60;99.90
43607;DHT22;29197;44.788;10.366;2023-03-01T15:24:19;6.40;99.90
43607;DHT22;29197;44.788;10.366;2023-03-01T15:27:14;6.10;99.90
43607;DHT22;29197;44.788;10.366;2023-03-01T15:30:06;6.20;99.90
43607;DHT22;29197;44.788;10.366;2023-03-01T15:33:25;6.40;99.90
43607;DHT22;29197;44.788;10.366;2023-03-01T15:36:35;6.30;99.90
43607;DHT22;29197;44.788;10.366;2023-03-01T15:39:37;6.40;99.90
43607;DHT22;29197;44.788;10.366;2023-03-01T15:42:36;6.40;99.90
43607;DHT22;29197;44.788;10.366;2023-03-01T15:45:27;6.00;99.90
43607;DHT22;29197;44.788;10.366;2023-03-01T15:48:18;6.20;99.90
43607;DHT22;29197;44.788;10.366;2023-03-01T15:51:12;6.10;99.90
43607;DHT22;29197;44.788;10.366;2023-03-01T15:54:05;6.30;99.90
43607;DHT22;29197;44.788;10.366;2023-03-01T15:56:56;6.10;99.90
43607;DHT22;29197;44.788;10.366;2023-03-01T15:59:44;6.30;99.90
43607;DHT22;29197;44.788;10.366;2023-03-01T16:02:33;6.40;99.90
43607;DHT22;29197;44.788;10.366;2023-03-01T16:05:23;5.90;99.90
43607;DHT22;29197;44.788;10.366;2023-03-01T16:08:12;6.10;99.90
43607;DHT22;29197;44.788;10.366;2023-03-01T16:11:01;6.30;99.90
43607;DHT22;29197;44.788;10.366;2023-03-01T16:13:53;6.50;99.90
43607;DHT22;29197;44.788;10.366;2023-03-01T16:16:42;6.50;99.90
43607;DHT22;29197;44.788;10.366;2023-03-01T16:19:31;6.50;99.90
43607;DHT22;29197;44.788;10.366;2023-03-01T16:22:19;6.00;99.90
43607;DHT22;29197;44.788;10.366;2023-03-01T16:25:13;5.70;99.90
43607;DHT22;29197;44.788;10.366;2023-03-01T16:28:03;5.90;99.90
43607;DHT22;29197;44.788;10.366;2023-03-01T16:30:57;6.10;99.90
43607;DHT22;29197;44.788;10.366;2023-03-01T16:33:49;6.00;99.90
43607;DHT22;29197;44.788;10.366;2023-03-01T16:36:39;5.70;99.90
43607;DHT22;29197;44.788;10.366;2023-03-01T16:39:28;5.60;99.90
43607;DHT22;29197;44.788;10.366;2023-03-01T16:42:17;5.60;99.90
43607;DHT22;29197;44.788;10.366;2023-03-01T16:45:07;5.50;99.90
43607;DHT22;29197;44.788;10.366;2023-03-01T16:48:11;5.60;99.90
43607;DHT22;29197;44.788;10.366;2023-03-01T16:51:00;5.50;99.90
43607;DHT22;29197;44.788;10.366;2023-03-01T16:53:50;5.40;99.90
43607;DHT22;29197;44.788;10.366;2023-03-01T16:56:39;5.40;99.90
43607;DHT22;29197;44.788;10.366;2023-03-01T16:59:27;5.50;99.90
43607;DHT22;29197;44.788;10.366;2023-03-01T17:02:16;5.70;99.90
43607;DHT22;29197;44.788;10.366;2023-03-01T17:05:08;5.80;99.90
43607;DHT22;29197;44.788;10.366;2023-03-01T17:07:58;5.80;99.90
43607;DHT22;29197;44.788;10.366;2023-03-01T17:10:46;5.90;99.90
43607;DHT22;29197;44.788;10.366;2023-03-01T17:13:35;6.30;99.90
43607;DHT22;29197;44.788;10.366;2023-03-01T17:16:24;6.50;99.90
43607;DHT22;29197;44.788;10.366;2023-03-01T17:19:13;6.70;99.90
43607;DHT22;29197;44.788;10.366;2023-03-01T17:22:06;6.70;99.90
43607;DHT22;29197;44.788;10.366;2023-03-01T17:24:54;6.80;99.90
43607;DHT22;29197;44.788;10.366;2023-03-01T17:27:43;6.40;99.90
43607;DHT22;29197;44.788;10.366;2023-03-01T17:30:31;6.30;99.90
43607;DHT22;29197;44.788;10.366;2023-03-01T17:33:20;6.00;99.90
43607;DHT22;29197;44.788;10.366;2023-03-01T17:36:09;5.90;99.90
43607;DHT22;29197;44.788;10.366;2023-03-01T17:38:59;5.80;99.90
43607;DHT22;29197;44.788;10.366;2023-03-01T17:41:47;5.90;99.90
43607;DHT22;29197;44.788;10.366;2023-03-01T17:44:36;5.40;99.90
43607;DHT22;29197;44.788;10.366;2023-03-01T17:47:24;5.20;99.90
43607;DHT22;29197;44.788;10.366;2023-03-01T17:50:13;5.90;99.90
43607;DHT22;29197;44.788;10.366;2023-03-01T17:53:02;5.20;99.90
43607;DHT22;29197;44.788;10.366;2023-03-01T17:56:01;5.30;99.90
43607;DHT22;29197;44.788;10.366;2023-03-01T17:58:51;5.30;99.90
43607;DHT22;29197;44.788;10.366;2023-03-01T18:01:40;5.10;99.90
43607;DHT22;29197;44.788;10.366;2023-03-01T18:04:29;5.10;99.90
43607;DHT22;29197;44.788;10.366;2023-03-01T18:07:18;5.40;99.90
43607;DHT22;29197;44.788;10.366;2023-03-01T18:10:08;5.50;99.90
43607;DHT22;29197;44.788;10.366;2023-03-01T18:12:58;5.50;99.90
43607;DHT22;29197;44.788;10.366;2023-03-01T18:15:46;5.60;99.90
43607;DHT22;29197;44.788;10.366;2023-03-01T18:18:35;6.00;99.90
43607;DHT22;29197;44.788;10.366;2023-03-01T18:21:24;6.10;99.90